Terminal Aerodrome Forecast
Issued by NWS

Home | Current Version | Previous Version | Graphics & Text | Print | Product List | Glossary On
Versions: 1 2 3 4 5 6 7 8 9 10 11 12 13 14 15 16 17 18 19 20
000
FTUS43 KGRB 241700
TAFAUW
TAF
KAUW 241723Z 2418/2518 14010KT P6SM SCT250
     FM242300 12008KT P6SM SCT100 BKN250
     FM250600 10008KT 4SM -SN SCT015 OVC025
     FM250700 10007KT 1 1/2SM -SN OVC004
      TEMPO 2508/2512 3/4SM -SN OVC002
     FM251300 25007KT P6SM OVC006
     FM251700 25012G18KT P6SM BKN010=

USA.gov is the U.S. government's official web portal to all federal, state and local government web resources and services.